De Forest, Wisconsin
Current Conditions -  °F | °C
As of 12:53 AM on Thursday 27 Nov 2014 (Local Time) from KMSN Reporting Station
Light Snow Light Snow  
Wind Chill: 20°   Ceiling: 4600
Heat Index: 20°   Visibility: 2.5mi
Dew Point: 17°   Wind: 3mph
Humidity: 89%   Direction: 310°NW
Pressure: 30.24"   Gusts: NA
Location:  43.25°N, 89.34°W
Report Text: KMSN 270653Z AUTO 31003KT 2 1/2SM -SN BR BKN046 OVC060 M07/M08 A3024 RMK AO2 SNB23 SLP253 P0000 T10671083
Loading
Personal Weather Stations






























Interactive Weather Map New forecast layout! Learn more

10-Day Weather Forecast

Advertisements
Track Severe Weather on mobile